sensor_id;sensor_type;location;lat;lon;timestamp;pressure;altitude;pressure_sealevel;temperature;humidity
34482;BME280;20720;48.886;9.388;2022-12-18T00:00:53;99589.50;;;-8.45;100.00
34482;BME280;20720;48.886;9.388;2022-12-18T00:03:18;99578.47;;;-7.97;100.00
34482;BME280;20720;48.886;9.388;2022-12-18T00:05:51;99582.03;;;-8.02;100.00
34482;BME280;20720;48.886;9.388;2022-12-18T00:08:17;99586.34;;;-8.03;100.00
34482;BME280;20720;48.886;9.388;2022-12-18T00:10:43;99590.31;;;-7.96;100.00
34482;BME280;20720;48.886;9.388;2022-12-18T00:13:09;99587.50;;;-7.88;100.00
34482;BME280;20720;48.886;9.388;2022-12-18T00:15:35;99585.63;;;-8.08;100.00
34482;BME280;20720;48.886;9.388;2022-12-18T00:18:00;99580.59;;;-8.09;100.00
34482;BME280;20720;48.886;9.388;2022-12-18T00:20:26;99584.38;;;-7.96;100.00
34482;BME280;20720;48.886;9.388;2022-12-18T00:22:52;99588.06;;;-7.80;100.00
34482;BME280;20720;48.886;9.388;2022-12-18T00:25:17;99586.50;;;-7.84;100.00
34482;BME280;20720;48.886;9.388;2022-12-18T00:27:43;99591.25;;;-7.98;100.00
34482;BME280;20720;48.886;9.388;2022-12-18T00:30:08;99593.22;;;-7.82;100.00
34482;BME280;20720;48.886;9.388;2022-12-18T00:32:34;99599.03;;;-8.50;100.00
34482;BME280;20720;48.886;9.388;2022-12-18T00:34:59;99596.47;;;-8.01;100.00
34482;BME280;20720;48.886;9.388;2022-12-18T00:37:24;99591.16;;;-7.95;100.00
34482;BME280;20720;48.886;9.388;2022-12-18T00:39:50;99591.25;;;-7.98;100.00
34482;BME280;20720;48.886;9.388;2022-12-18T00:42:15;99594.72;;;-7.76;100.00
34482;BME280;20720;48.886;9.388;2022-12-18T00:44:59;99596.06;;;-7.89;100.00
34482;BME280;20720;48.886;9.388;2022-12-18T00:47:24;99586.84;;;-7.93;100.00
34482;BME280;20720;48.886;9.388;2022-12-18T00:49:49;99593.03;;;-8.00;100.00
34482;BME280;20720;48.886;9.388;2022-12-18T00:52:14;99600.13;;;-7.85;100.00
34482;BME280;20720;48.886;9.388;2022-12-18T00:54:40;99595.72;;;-7.80;100.00
34482;BME280;20720;48.886;9.388;2022-12-18T00:57:05;99590.94;;;-7.89;100.00
34482;BME280;20720;48.886;9.388;2022-12-18T00:59:30;99588.69;;;-7.98;100.00
34482;BME280;20720;48.886;9.388;2022-12-18T01:01:55;99578.25;;;-8.15;100.00
34482;BME280;20720;48.886;9.388;2022-12-18T01:04:21;99580.16;;;-8.20;100.00
34482;BME280;20720;48.886;9.388;2022-12-18T01:06:46;99585.34;;;-8.23;100.00
34482;BME280;20720;48.886;9.388;2022-12-18T01:09:11;99591.97;;;-8.19;100.00
34482;BME280;20720;48.886;9.388;2022-12-18T01:11:37;99595.53;;;-8.23;100.00
34482;BME280;20720;48.886;9.388;2022-12-18T01:14:02;99597.19;;;-8.22;100.00
34482;BME280;20720;48.886;9.388;2022-12-18T01:16:27;99589.13;;;-8.33;100.00
34482;BME280;20720;48.886;9.388;2022-12-18T01:18:54;99583.13;;;-8.32;100.00
34482;BME280;20720;48.886;9.388;2022-12-18T01:21:20;99594.88;;;-8.28;100.00
34482;BME280;20720;48.886;9.388;2022-12-18T01:23:46;99599.69;;;-8.45;100.00
34482;BME280;20720;48.886;9.388;2022-12-18T01:26:14;99601.19;;;-8.38;100.00
34482;BME280;20720;48.886;9.388;2022-12-18T01:28:39;99612.25;;;-8.92;100.00
34482;BME280;20720;48.886;9.388;2022-12-18T01:31:21;99611.41;;;-8.92;100.00
34482;BME280;20720;48.886;9.388;2022-12-18T01:33:47;99611.75;;;-8.50;100.00
34482;BME280;20720;48.886;9.388;2022-12-18T01:36:27;99617.47;;;-8.68;100.00
34482;BME280;20720;48.886;9.388;2022-12-18T01:38:54;99614.53;;;-9.10;100.00
34482;BME280;20720;48.886;9.388;2022-12-18T01:41:26;99609.44;;;-9.10;100.00
34482;BME280;20720;48.886;9.388;2022-12-18T01:43:53;99606.78;;;-8.53;100.00
34482;BME280;20720;48.886;9.388;2022-12-18T01:46:21;99613.91;;;-8.38;100.00
34482;BME280;20720;48.886;9.388;2022-12-18T01:48:52;99614.47;;;-8.30;100.00
34482;BME280;20720;48.886;9.388;2022-12-18T01:51:18;99612.16;;;-8.36;100.00
34482;BME280;20720;48.886;9.388;2022-12-18T01:53:44;99610.00;;;-8.48;100.00
34482;BME280;20720;48.886;9.388;2022-12-18T01:56:14;99606.88;;;-8.32;100.00
34482;BME280;20720;48.886;9.388;2022-12-18T01:59:00;99601.91;;;-8.35;100.00
34482;BME280;20720;48.886;9.388;2022-12-18T02:01:29;99607.00;;;-8.35;100.00
34482;BME280;20720;48.886;9.388;2022-12-18T02:03:55;99603.16;;;-8.46;100.00
34482;BME280;20720;48.886;9.388;2022-12-18T02:06:27;99603.16;;;-8.46;100.00
34482;BME280;20720;48.886;9.388;2022-12-18T02:09:05;99601.38;;;-8.44;100.00
34482;BME280;20720;48.886;9.388;2022-12-18T02:15:13;99597.06;;;-8.42;100.00
34482;BME280;20720;48.886;9.388;2022-12-18T02:20:45;99612.44;;;-8.45;100.00
34482;BME280;20720;48.886;9.388;2022-12-18T02:26:26;99615.34;;;-9.68;100.00
34482;BME280;20720;48.886;9.388;2022-12-18T02:28:59;99617.81;;;-8.81;100.00
34482;BME280;20720;48.886;9.388;2022-12-18T02:31:27;99629.47;;;-8.47;100.00
34482;BME280;20720;48.886;9.388;2022-12-18T02:33:55;99622.72;;;-8.75;100.00
34482;BME280;20720;48.886;9.388;2022-12-18T02:36:22;99612.75;;;-8.81;100.00
34482;BME280;20720;48.886;9.388;2022-12-18T02:38:50;99613.63;;;-8.55;100.00
34482;BME280;20720;48.886;9.388;2022-12-18T02:41:16;99610.41;;;-8.36;100.00
34482;BME280;20720;48.886;9.388;2022-12-18T02:43:47;99613.25;;;-8.20;100.00
34482;BME280;20720;48.886;9.388;2022-12-18T02:48:51;99634.66;;;-8.24;100.00
34482;BME280;20720;48.886;9.388;2022-12-18T02:51:29;99616.59;;;-8.18;100.00
34482;BME280;20720;48.886;9.388;2022-12-18T02:54:06;99618.75;;;-8.06;100.00
34482;BME280;20720;48.886;9.388;2022-12-18T02:56:50;99622.31;;;-8.61;100.00
34482;BME280;20720;48.886;9.388;2022-12-18T02:59:25;99633.28;;;-8.10;100.00
34482;BME280;20720;48.886;9.388;2022-12-18T03:02:09;99637.59;;;-8.12;100.00
34482;BME280;20720;48.886;9.388;2022-12-18T03:04:42;99642.47;;;-8.04;100.00
34482;BME280;20720;48.886;9.388;2022-12-18T03:07:15;99634.94;;;-8.09;100.00
34482;BME280;20720;48.886;9.388;2022-12-18T03:09:42;99633.91;;;-8.03;100.00
34482;BME280;20720;48.886;9.388;2022-12-18T03:12:18;99629.22;;;-8.15;100.00
34482;BME280;20720;48.886;9.388;2022-12-18T03:14:52;99631.56;;;-8.09;100.00
34482;BME280;20720;48.886;9.388;2022-12-18T03:17:20;99626.28;;;-8.03;100.00
34482;BME280;20720;48.886;9.388;2022-12-18T03:19:48;99634.28;;;-8.64;100.00
34482;BME280;20720;48.886;9.388;2022-12-18T03:22:15;99632.28;;;-8.29;100.00
34482;BME280;20720;48.886;9.388;2022-12-18T03:24:41;99630.47;;;-8.25;100.00
34482;BME280;20720;48.886;9.388;2022-12-18T03:27:16;99636.25;;;-7.97;100.00
34482;BME280;20720;48.886;9.388;2022-12-18T03:29:47;99646.59;;;-8.02;100.00
34482;BME280;20720;48.886;9.388;2022-12-18T03:32:23;99641.63;;;-8.05;100.00
34482;BME280;20720;48.886;9.388;2022-12-18T03:34:52;99646.78;;;-8.06;100.00
34482;BME280;20720;48.886;9.388;2022-12-18T03:37:20;99641.63;;;-8.05;100.00
34482;BME280;20720;48.886;9.388;2022-12-18T03:39:45;99640.56;;;-7.99;100.00
34482;BME280;20720;48.886;9.388;2022-12-18T03:42:18;99646.38;;;-8.20;100.00
34482;BME280;20720;48.886;9.388;2022-12-18T03:44:57;99646.13;;;-8.91;100.00
34482;BME280;20720;48.886;9.388;2022-12-18T03:47:30;99660.28;;;-8.55;100.00
34482;BME280;20720;48.886;9.388;2022-12-18T03:50:29;99650.38;;;-8.36;100.00
34482;BME280;20720;48.886;9.388;2022-12-18T03:55:55;99639.28;;;-8.35;100.00
34482;BME280;20720;48.886;9.388;2022-12-18T03:58:26;99637.41;;;-8.56;100.00
34482;BME280;20720;48.886;9.388;2022-12-18T04:00:55;99638.00;;;-9.02;100.00
34482;BME280;20720;48.886;9.388;2022-12-18T04:03:23;99633.00;;;-9.05;100.00
34482;BME280;20720;48.886;9.388;2022-12-18T04:05:50;99634.03;;;-9.11;100.00
34482;BME280;20720;48.886;9.388;2022-12-18T04:08:16;99632.72;;;-8.68;100.00
34482;BME280;20720;48.886;9.388;2022-12-18T04:10:42;99644.63;;;-8.69;100.00
34482;BME280;20720;48.886;9.388;2022-12-18T04:13:08;99635.38;;;-8.99;100.00
34482;BME280;20720;48.886;9.388;2022-12-18T04:15:35;99635.72;;;-8.84;100.00
34482;BME280;20720;48.886;9.388;2022-12-18T04:18:02;99633.38;;;-8.90;100.00
34482;BME280;20720;48.886;9.388;2022-12-18T04:20:27;99634.19;;;-8.88;100.00
34482;BME280;20720;48.886;9.388;2022-12-18T04:22:52;99641.28;;;-8.71;100.00
34482;BME280;20720;48.886;9.388;2022-12-18T04:25:18;99639.84;;;-8.80;100.00
34482;BME280;20720;48.886;9.388;2022-12-18T04:27:43;99642.91;;;-8.68;100.00
34482;BME280;20720;48.886;9.388;2022-12-18T04:30:09;99646.50;;;-8.49;100.00
34482;BME280;20720;48.886;9.388;2022-12-18T04:32:34;99643.75;;;-8.96;100.00
34482;BME280;20720;48.886;9.388;2022-12-18T04:35:00;99644.19;;;-8.83;100.00
34482;BME280;20720;48.886;9.388;2022-12-18T04:37:25;99649.00;;;-8.74;100.00
34482;BME280;20720;48.886;9.388;2022-12-18T04:39:51;99648.25;;;-8.78;100.00
34482;BME280;20720;48.886;9.388;2022-12-18T04:42:16;99662.88;;;-8.56;100.00
34482;BME280;20720;48.886;9.388;2022-12-18T04:44:41;99663.53;;;-8.78;100.00
34482;BME280;20720;48.886;9.388;2022-12-18T04:47:06;99655.25;;;-8.56;100.00
34482;BME280;20720;48.886;9.388;2022-12-18T04:49:32;99647.72;;;-9.15;100.00
34482;BME280;20720;48.886;9.388;2022-12-18T04:51:57;99648.25;;;-8.78;100.00
34482;BME280;20720;48.886;9.388;2022-12-18T04:54:23;99656.03;;;-8.54;100.00
34482;BME280;20720;48.886;9.388;2022-12-18T04:56:48;99649.66;;;-8.68;100.00
34482;BME280;20720;48.886;9.388;2022-12-18T04:59:13;99658.53;;;-9.08;100.00
34482;BME280;20720;48.886;9.388;2022-12-18T05:01:39;99657.00;;;-9.14;100.00
34482;BME280;20720;48.886;9.388;2022-12-18T05:04:04;99640.75;;;-8.54;100.00
34482;BME280;20720;48.886;9.388;2022-12-18T05:06:29;99646.63;;;-8.26;100.00
34482;BME280;20720;48.886;9.388;2022-12-18T05:08:55;99648.56;;;-8.60;100.00
34482;BME280;20720;48.886;9.388;2022-12-18T05:11:20;99650.84;;;-8.02;100.00
34482;BME280;20720;48.886;9.388;2022-12-18T05:13:45;99646.81;;;-8.32;100.00
34482;BME280;20720;48.886;9.388;2022-12-18T05:16:11;99633.28;;;-8.34;100.00
34482;BME280;20720;48.886;9.388;2022-12-18T05:18:38;99641.22;;;-8.19;100.00
34482;BME280;20720;48.886;9.388;2022-12-18T05:21:03;99645.16;;;-8.09;100.00
34482;BME280;20720;48.886;9.388;2022-12-18T05:23:28;99647.94;;;-8.16;100.00
34482;BME280;20720;48.886;9.388;2022-12-18T05:25:57;99641.22;;;-9.25;100.00
34482;BME280;20720;48.886;9.388;2022-12-18T05:28:24;99642.19;;;-8.74;100.00
34482;BME280;20720;48.886;9.388;2022-12-18T05:30:52;99643.69;;;-8.40;100.00
34482;BME280;20720;48.886;9.388;2022-12-18T05:33:18;99645.41;;;-8.16;100.00
34482;BME280;20720;48.886;9.388;2022-12-18T05:35:49;99634.91;;;-7.83;100.00
34482;BME280;20720;48.886;9.388;2022-12-18T05:38:15;99631.47;;;-7.82;100.00
34482;BME280;20720;48.886;9.388;2022-12-18T05:40:42;99644.47;;;-7.64;100.00
34482;BME280;20720;48.886;9.388;2022-12-18T05:43:08;99644.50;;;-7.20;100.00
34482;BME280;20720;48.886;9.388;2022-12-18T05:45:37;99642.16;;;-6.59;100.00
34482;BME280;20720;48.886;9.388;2022-12-18T05:48:02;99641.75;;;-6.70;100.00
34482;BME280;20720;48.886;9.388;2022-12-18T05:50:27;99650.97;;;-6.88;100.00
34482;BME280;20720;48.886;9.388;2022-12-18T05:52:53;99642.47;;;-6.89;100.00
34482;BME280;20720;48.886;9.388;2022-12-18T05:55:18;99653.31;;;-6.40;100.00
34482;BME280;20720;48.886;9.388;2022-12-18T05:57:43;99656.06;;;-6.45;100.00
34482;BME280;20720;48.886;9.388;2022-12-18T06:00:09;99655.97;;;-6.02;100.00
34482;BME280;20720;48.886;9.388;2022-12-18T06:02:34;99660.44;;;-6.27;100.00
34482;BME280;20720;48.886;9.388;2022-12-18T06:05:00;99646.72;;;-6.04;100.00
34482;BME280;20720;48.886;9.388;2022-12-18T06:07:25;99646.84;;;-6.07;100.00
34482;BME280;20720;48.886;9.388;2022-12-18T06:09:50;99656.28;;;-6.51;100.00
34482;BME280;20720;48.886;9.388;2022-12-18T06:12:16;99651.16;;;-6.49;100.00
34482;BME280;20720;48.886;9.388;2022-12-18T06:14:41;99650.97;;;-6.66;100.00
34482;BME280;20720;48.886;9.388;2022-12-18T06:17:06;99654.13;;;-6.82;100.00
34482;BME280;20720;48.886;9.388;2022-12-18T06:19:31;99648.81;;;-6.99;100.00
34482;BME280;20720;48.886;9.388;2022-12-18T06:21:57;99666.34;;;-7.13;100.00
34482;BME280;20720;48.886;9.388;2022-12-18T06:24:24;99665.03;;;-7.23;100.00
34482;BME280;20720;48.886;9.388;2022-12-18T06:26:49;99661.72;;;-7.25;100.00
34482;BME280;20720;48.886;9.388;2022-12-18T06:29:14;99665.69;;;-7.41;100.00
34482;BME280;20720;48.886;9.388;2022-12-18T06:31:39;99663.38;;;-7.47;100.00
34482;BME280;20720;48.886;9.388;2022-12-18T06:34:05;99668.34;;;-7.67;100.00
34482;BME280;20720;48.886;9.388;2022-12-18T06:36:30;99667.00;;;-7.77;100.00
34482;BME280;20720;48.886;9.388;2022-12-18T06:38:56;99668.03;;;-7.83;100.00
34482;BME280;20720;48.886;9.388;2022-12-18T06:41:22;99656.59;;;-7.96;100.00
34482;BME280;20720;48.886;9.388;2022-12-18T06:43:47;99662.84;;;-8.04;100.00
34482;BME280;20720;48.886;9.388;2022-12-18T06:46:13;99665.94;;;-8.21;100.00
34482;BME280;20720;48.886;9.388;2022-12-18T06:48:38;99671.50;;;-8.34;100.00
34482;BME280;20720;48.886;9.388;2022-12-18T06:51:04;99671.00;;;-8.45;100.00
34482;BME280;20720;48.886;9.388;2022-12-18T06:53:29;99666.41;;;-8.34;100.00
34482;BME280;20720;48.886;9.388;2022-12-18T06:56:02;99662.81;;;-7.80;100.00
34482;BME280;20720;48.886;9.388;2022-12-18T06:58:27;99679.53;;;-8.73;100.00
34482;BME280;20720;48.886;9.388;2022-12-18T07:00:53;99684.69;;;-8.76;100.00
34482;BME280;20720;48.886;9.388;2022-12-18T07:03:18;99686.59;;;-8.82;100.00
34482;BME280;20720;48.886;9.388;2022-12-18T07:05:43;99686.19;;;-8.68;100.00
34482;BME280;20720;48.886;9.388;2022-12-18T07:08:09;99687.44;;;-8.54;100.00
34482;BME280;20720;48.886;9.388;2022-12-18T07:10:41;99684.22;;;-8.34;100.00
34482;BME280;20720;48.886;9.388;2022-12-18T07:13:06;99693.47;;;-7.81;100.00
34482;BME280;20720;48.886;9.388;2022-12-18T07:15:32;99685.56;;;-7.98;100.00
34482;BME280;20720;48.886;9.388;2022-12-18T07:17:57;99695.72;;;-7.97;100.00
34482;BME280;20720;48.886;9.388;2022-12-18T07:20:23;99700.50;;;-7.88;100.00
34482;BME280;20720;48.886;9.388;2022-12-18T07:22:48;99701.31;;;-7.87;100.00
34482;BME280;20720;48.886;9.388;2022-12-18T07:25:13;99700.50;;;-7.63;100.00
34482;BME280;20720;48.886;9.388;2022-12-18T07:27:38;99701.91;;;-7.54;100.00
34482;BME280;20720;48.886;9.388;2022-12-18T07:30:04;99705.34;;;-7.55;100.00
34482;BME280;20720;48.886;9.388;2022-12-18T07:32:30;99706.81;;;-7.25;100.00
34482;BME280;20720;48.886;9.388;2022-12-18T07:34:55;99708.22;;;-7.41;100.00
34482;BME280;20720;48.886;9.388;2022-12-18T07:37:20;99718.53;;;-7.20;100.00
34482;BME280;20720;48.886;9.388;2022-12-18T07:39:46;99713.75;;;-7.06;100.00
34482;BME280;20720;48.886;9.388;2022-12-18T07:42:11;99715.53;;;-7.08;100.00
34482;BME280;20720;48.886;9.388;2022-12-18T07:44:55;99720.78;;;-7.35;100.00
34482;BME280;20720;48.886;9.388;2022-12-18T07:47:20;99722.72;;;-6.96;100.00
34482;BME280;20720;48.886;9.388;2022-12-18T07:49:45;99719.34;;;-6.96;100.00
34482;BME280;20720;48.886;9.388;2022-12-18T07:52:11;99719.88;;;-7.10;100.00
34482;BME280;20720;48.886;9.388;2022-12-18T07:54:37;99723.78;;;-7.24;100.00
34482;BME280;20720;48.886;9.388;2022-12-18T07:57:02;99728.16;;;-7.28;100.00
34482;BME280;20720;48.886;9.388;2022-12-18T07:59:28;99732.50;;;-7.07;100.00
34482;BME280;20720;48.886;9.388;2022-12-18T08:01:53;99734.59;;;-6.72;100.00
34482;BME280;20720;48.886;9.388;2022-12-18T08:04:18;99734.63;;;-6.50;100.00
34482;BME280;20720;48.886;9.388;2022-12-18T08:06:44;99735.69;;;-6.12;100.00
34482;BME280;20720;48.886;9.388;2022-12-18T08:09:09;99734.38;;;-5.60;100.00
34482;BME280;20720;48.886;9.388;2022-12-18T08:11:34;99723.97;;;-4.99;100.00
34482;BME280;20720;48.886;9.388;2022-12-18T08:14:00;99720.16;;;-5.47;100.00
34482;BME280;20720;48.886;9.388;2022-12-18T08:16:26;99714.41;;;-5.14;100.00
34482;BME280;20720;48.886;9.388;2022-12-18T08:18:52;99720.03;;;-4.68;100.00
34482;BME280;20720;48.886;9.388;2022-12-18T08:21:26;99719.09;;;-4.30;100.00
34482;BME280;20720;48.886;9.388;2022-12-18T08:23:54;99707.53;;;-4.03;100.00
34482;BME280;20720;48.886;9.388;2022-12-18T08:26:20;99712.56;;;-3.18;100.00
34482;BME280;20720;48.886;9.388;2022-12-18T08:28:46;99710.84;;;-3.17;100.00
34482;BME280;20720;48.886;9.388;2022-12-18T08:31:11;99716.09;;;-3.36;100.00
34482;BME280;20720;48.886;9.388;2022-12-18T08:33:37;99720.13;;;-2.35;100.00
34482;BME280;20720;48.886;9.388;2022-12-18T08:36:04;99720.78;;;-2.63;98.16
34482;BME280;20720;48.886;9.388;2022-12-18T08:38:29;99724.75;;;-2.26;99.10
34482;BME280;20720;48.886;9.388;2022-12-18T08:41:14;99729.72;;;-3.51;97.86
34482;BME280;20720;48.886;9.388;2022-12-18T08:43:40;99718.88;;;-2.28;100.00
34482;BME280;20720;48.886;9.388;2022-12-18T08:46:25;99719.81;;;-1.70;100.00
34482;BME280;20720;48.886;9.388;2022-12-18T08:48:52;99717.25;;;-1.12;98.48
34482;BME280;20720;48.886;9.388;2022-12-18T08:51:19;99715.81;;;-0.61;97.55
34482;BME280;20720;48.886;9.388;2022-12-18T08:53:44;99720.22;;;-1.62;100.00
34482;BME280;20720;48.886;9.388;2022-12-18T08:56:11;99715.91;;;-0.22;100.00
34482;BME280;20720;48.886;9.388;2022-12-18T08:58:36;99717.72;;;0.29;100.00
34482;BME280;20720;48.886;9.388;2022-12-18T09:01:07;99714.34;;;0.41;100.00
34482;BME280;20720;48.886;9.388;2022-12-18T09:03:34;99710.69;;;0.44;100.00
34482;BME280;20720;48.886;9.388;2022-12-18T09:05:59;99709.50;;;0.10;100.00
34482;BME280;20720;48.886;9.388;2022-12-18T09:08:25;99708.75;;;0.98;100.00
34482;BME280;20720;48.886;9.388;2022-12-18T09:10:51;99705.28;;;1.71;99.35
34482;BME280;20720;48.886;9.388;2022-12-18T09:13:17;99699.50;;;1.91;95.79
34482;BME280;20720;48.886;9.388;2022-12-18T09:15:44;99693.34;;;0.83;97.34
34482;BME280;20720;48.886;9.388;2022-12-18T09:18:10;99687.44;;;0.31;98.70
34482;BME280;20720;48.886;9.388;2022-12-18T09:20:36;99691.47;;;1.11;100.00
34482;BME280;20720;48.886;9.388;2022-12-18T09:23:02;99690.81;;;1.56;94.87
34482;BME280;20720;48.886;9.388;2022-12-18T09:25:31;99699.88;;;-0.27;98.46
34482;BME280;20720;48.886;9.388;2022-12-18T09:27:59;99690.66;;;0.98;100.00
34482;BME280;20720;48.886;9.388;2022-12-18T09:30:24;99689.13;;;1.91;94.93
34482;BME280;20720;48.886;9.388;2022-12-18T09:32:49;99688.56;;;1.15;93.26
34482;BME280;20720;48.886;9.388;2022-12-18T09:35:15;99684.78;;;1.68;95.51
34482;BME280;20720;48.886;9.388;2022-12-18T09:37:40;99684.41;;;1.85;93.20
34482;BME280;20720;48.886;9.388;2022-12-18T09:40:13;99685.94;;;1.64;94.27
34482;BME280;20720;48.886;9.388;2022-12-18T09:42:39;99685.22;;;1.62;93.67
34482;BME280;20720;48.886;9.388;2022-12-18T09:45:07;99679.97;;;1.51;94.79
34482;BME280;20720;48.886;9.388;2022-12-18T09:47:38;99682.63;;;1.26;95.67
34482;BME280;20720;48.886;9.388;2022-12-18T09:50:35;99669.50;;;1.52;96.00
34482;BME280;20720;48.886;9.388;2022-12-18T09:53:05;99680.44;;;2.27;90.90
34482;BME280;20720;48.886;9.388;2022-12-18T09:55:40;99675.22;;;1.09;96.10
34482;BME280;20720;48.886;9.388;2022-12-18T09:58:22;99669.25;;;1.68;96.79
34482;BME280;20720;48.886;9.388;2022-12-18T10:00:54;99666.97;;;1.40;98.55
34482;BME280;20720;48.886;9.388;2022-12-18T10:03:20;99664.25;;;1.65;94.66
34482;BME280;20720;48.886;9.388;2022-12-18T10:10:55;99670.09;;;2.03;95.10
34482;BME280;20720;48.886;9.388;2022-12-18T10:13:45;99662.69;;;1.99;94.33
34482;BME280;20720;48.886;9.388;2022-12-18T10:16:35;99670.47;;;2.10;94.44
34482;BME280;20720;48.886;9.388;2022-12-18T10:19:27;99664.47;;;2.77;89.95
34482;BME280;20720;48.886;9.388;2022-12-18T10:27:38;99672.16;;;2.90;90.82
34482;BME280;20720;48.886;9.388;2022-12-18T10:30:12;99677.75;;;2.50;90.13
34482;BME280;20720;48.886;9.388;2022-12-18T10:32:39;99673.44;;;2.62;87.90
34482;BME280;20720;48.886;9.388;2022-12-18T10:35:04;99685.69;;;2.71;89.94
34482;BME280;20720;48.886;9.388;2022-12-18T10:37:30;99674.97;;;2.53;87.92
34482;BME280;20720;48.886;9.388;2022-12-18T10:40:11;99670.84;;;2.84;87.85
34482;BME280;20720;48.886;9.388;2022-12-18T10:42:37;99673.16;;;2.43;89.47
34482;BME280;20720;48.886;9.388;2022-12-18T10:45:15;99677.56;;;2.64;90.15
34482;BME280;20720;48.886;9.388;2022-12-18T10:47:48;99677.09;;;3.37;84.64
34482;BME280;20720;48.886;9.388;2022-12-18T10:50:34;99686.28;;;3.30;85.36
34482;BME280;20720;48.886;9.388;2022-12-18T10:53:03;99684.19;;;3.13;86.41
34482;BME280;20720;48.886;9.388;2022-12-18T10:55:38;99685.81;;;2.92;84.90
34482;BME280;20720;48.886;9.388;2022-12-18T10:58:24;99681.75;;;3.65;84.37
34482;BME280;20720;48.886;9.388;2022-12-18T11:01:17;99686.06;;;3.44;82.07
34482;BME280;20720;48.886;9.388;2022-12-18T11:06:21;99666.03;;;3.02;86.90
34482;BME280;20720;48.886;9.388;2022-12-18T11:09:05;99671.31;;;3.22;85.36
34482;BME280;20720;48.886;9.388;2022-12-18T11:11:32;99672.72;;;3.37;84.71
34482;BME280;20720;48.886;9.388;2022-12-18T11:14:06;99671.50;;;3.52;85.51
34482;BME280;20720;48.886;9.388;2022-12-18T11:16:46;99665.81;;;3.58;82.84
34482;BME280;20720;48.886;9.388;2022-12-18T11:19:33;99663.34;;;3.57;82.97
34482;BME280;20720;48.886;9.388;2022-12-18T11:22:00;99656.03;;;3.94;81.33
34482;BME280;20720;48.886;9.388;2022-12-18T11:24:34;99654.91;;;3.33;83.07
34482;BME280;20720;48.886;9.388;2022-12-18T11:27:16;99645.63;;;3.08;85.11
34482;BME280;20720;48.886;9.388;2022-12-18T11:29:43;99639.22;;;3.23;84.32
34482;BME280;20720;48.886;9.388;2022-12-18T11:34:42;99631.69;;;3.63;83.19
34482;BME280;20720;48.886;9.388;2022-12-18T11:37:12;99629.13;;;3.52;81.30
34482;BME280;20720;48.886;9.388;2022-12-18T11:39:46;99632.94;;;3.79;82.08
34482;BME280;20720;48.886;9.388;2022-12-18T11:42:45;99639.56;;;4.75;78.00
34482;BME280;20720;48.886;9.388;2022-12-18T11:48:11;99626.44;;;4.26;78.72
34482;BME280;20720;48.886;9.388;2022-12-18T11:50:53;99630.63;;;3.97;79.98
34482;BME280;20720;48.886;9.388;2022-12-18T11:53:20;99622.34;;;3.29;84.03
34482;BME280;20720;48.886;9.388;2022-12-18T12:01:52;99610.47;;;3.47;82.50
34482;BME280;20720;48.886;9.388;2022-12-18T12:15:54;99595.28;;;3.95;80.90
34482;BME280;20720;48.886;9.388;2022-12-18T12:20:59;99589.59;;;3.80;81.84
34482;BME280;20720;48.886;9.388;2022-12-18T12:23:39;99589.66;;;3.58;81.66
34482;BME280;20720;48.886;9.388;2022-12-18T12:26:10;99588.47;;;3.62;84.05
34482;BME280;20720;48.886;9.388;2022-12-18T12:28:53;99595.41;;;3.72;83.08
34482;BME280;20720;48.886;9.388;2022-12-18T12:37:20;99590.03;;;4.56;79.33
34482;BME280;20720;48.886;9.388;2022-12-18T12:39:50;99599.59;;;4.46;78.42
34482;BME280;20720;48.886;9.388;2022-12-18T12:42:41;99592.50;;;3.55;83.75
34482;BME280;20720;48.886;9.388;2022-12-18T12:45:36;99591.53;;;3.67;83.78
34482;BME280;20720;48.886;9.388;2022-12-18T12:48:05;99598.97;;;3.29;84.46
34482;BME280;20720;48.886;9.388;2022-12-18T12:50:35;99598.34;;;3.68;84.36
34482;BME280;20720;48.886;9.388;2022-12-18T12:53:06;99600.69;;;4.23;82.66
34482;BME280;20720;48.886;9.388;2022-12-18T12:55:32;99592.56;;;3.96;81.04
34482;BME280;20720;48.886;9.388;2022-12-18T12:58:33;99601.00;;;4.09;82.76
34482;BME280;20720;48.886;9.388;2022-12-18T13:01:09;99598.84;;;4.14;80.67
34482;BME280;20720;48.886;9.388;2022-12-18T13:03:46;99597.13;;;3.83;82.52
34482;BME280;20720;48.886;9.388;2022-12-18T13:06:36;99596.84;;;3.23;86.29
34482;BME280;20720;48.886;9.388;2022-12-18T13:09:02;99606.03;;;3.69;84.10
34482;BME280;20720;48.886;9.388;2022-12-18T13:11:36;99604.00;;;3.73;84.00
34482;BME280;20720;48.886;9.388;2022-12-18T13:14:24;99603.06;;;3.74;82.90
34482;BME280;20720;48.886;9.388;2022-12-18T13:16:49;99594.78;;;4.01;81.97
34482;BME280;20720;48.886;9.388;2022-12-18T13:19:22;99593.91;;;3.59;84.81
34482;BME280;20720;48.886;9.388;2022-12-18T13:21:54;99598.50;;;3.66;83.91
34482;BME280;20720;48.886;9.388;2022-12-18T13:24:30;99600.44;;;3.53;85.00
34482;BME280;20720;48.886;9.388;2022-12-18T13:26:55;99598.38;;;4.09;82.62
34482;BME280;20720;48.886;9.388;2022-12-18T13:29:41;99600.16;;;3.88;84.06
34482;BME280;20720;48.886;9.388;2022-12-18T13:32:20;99601.59;;;3.60;83.22
34482;BME280;20720;48.886;9.388;2022-12-18T13:34:45;99593.56;;;3.52;85.00
34482;BME280;20720;48.886;9.388;2022-12-18T13:37:39;99590.13;;;3.63;83.95
34482;BME280;20720;48.886;9.388;2022-12-18T13:40:50;99594.34;;;4.16;83.22
34482;BME280;20720;48.886;9.388;2022-12-18T13:43:35;99591.09;;;4.03;82.67
34482;BME280;20720;48.886;9.388;2022-12-18T13:51:55;99573.44;;;3.97;83.34
34482;BME280;20720;48.886;9.388;2022-12-18T13:54:25;99573.94;;;3.91;82.88
34482;BME280;20720;48.886;9.388;2022-12-18T13:56:53;99569.22;;;3.85;85.71
34482;BME280;20720;48.886;9.388;2022-12-18T13:59:22;99577.09;;;3.42;85.23
34482;BME280;20720;48.886;9.388;2022-12-18T14:01:52;99580.03;;;2.73;89.73
34482;BME280;20720;48.886;9.388;2022-12-18T14:04:28;99584.41;;;2.83;90.42
34482;BME280;20720;48.886;9.388;2022-12-18T14:07:01;99578.16;;;2.97;89.24
34482;BME280;20720;48.886;9.388;2022-12-18T14:09:35;99584.06;;;3.42;87.75
34482;BME280;20720;48.886;9.388;2022-12-18T14:12:01;99584.91;;;3.31;86.92
34482;BME280;20720;48.886;9.388;2022-12-18T14:14:47;99587.38;;;2.57;90.47
34482;BME280;20720;48.886;9.388;2022-12-18T14:17:14;99601.38;;;1.86;95.71